createdAt,value
2018-02-24T00:00:03.964Z,26.02
2018-02-24T00:02:06.423Z,28.90
2018-02-24T00:04:08.910Z,26.02
2018-02-24T00:06:11.473Z,39.47
2018-02-24T00:08:13.968Z,22.92
2018-02-24T00:10:16.468Z,24.52
2018-02-24T00:12:18.928Z,25.02
2018-02-24T00:14:21.469Z,26.27
2018-02-24T00:16:23.933Z,24.08
2018-02-24T00:18:26.447Z,28.95
2018-02-24T00:20:28.948Z,30.33
2018-02-24T00:22:37.227Z,26.25
2018-02-24T00:24:39.820Z,26.58
2018-02-24T00:26:42.297Z,27.40
2018-02-24T00:28:44.762Z,23.67
2018-02-24T00:30:47.298Z,25.58
2018-02-24T00:32:49.769Z,30.85
2018-02-24T00:34:52.292Z,29.73
2018-02-24T00:36:54.894Z,24.12
2018-02-24T00:38:57.349Z,31.20
2018-02-24T00:40:59.794Z,29.60
2018-02-24T00:43:02.265Z,29.50
2018-02-24T00:45:04.833Z,25.88
2018-02-24T00:47:07.448Z,32.20
2018-02-24T00:49:09.906Z,25.95
2018-02-24T00:51:12.357Z,29.98
2018-02-24T00:53:14.872Z,29.35
2018-02-24T00:55:17.322Z,28.15
2018-02-24T00:57:19.767Z,27.30
2018-02-24T00:59:22.253Z,26.02
2018-02-24T01:01:24.709Z,27.35
2018-02-24T01:03:27.205Z,27.10
2018-02-24T01:05:29.783Z,31.17
2018-02-24T01:07:32.278Z,29.25
2018-02-24T01:09:34.775Z,27.40
2018-02-24T01:11:37.362Z,25.67
2018-02-24T01:13:39.858Z,29.10
2018-02-24T01:15:42.289Z,32.78
2018-02-24T01:17:44.844Z,29.65
2018-02-24T01:19:47.318Z,27.73
2018-02-24T01:21:49.794Z,31.45
2018-02-24T01:23:52.324Z,34.20
2018-02-24T01:25:54.823Z,28.55
2018-02-24T01:27:57.300Z,31.12
2018-02-24T01:29:59.903Z,27.35
2018-02-24T01:32:02.353Z,31.20
2018-02-24T01:34:04.885Z,27.50
2018-02-24T01:36:07.362Z,29.35
2018-02-24T01:38:09.815Z,33.17
2018-02-24T01:40:12.392Z,32.60
2018-02-24T01:42:14.933Z,33.88
2018-02-24T01:44:17.501Z,29.25
2018-02-24T01:46:19.950Z,30.95
2018-02-24T01:48:22.429Z,30.75
2018-02-24T01:50:24.913Z,30.30
2018-02-24T01:52:27.398Z,29.50
2018-02-24T01:54:29.927Z,31.95
2018-02-24T01:56:32.513Z,29.45
2018-02-24T01:58:34.966Z,28.25
2018-02-24T02:00:37.515Z,28.55
2018-02-24T02:02:40.076Z,32.47
2018-02-24T02:04:42.508Z,27.95
2018-02-24T02:06:45.037Z,37.60
2018-02-24T02:08:47.508Z,26.52
2018-02-24T02:10:50.076Z,30.95
2018-02-24T02:12:52.580Z,30.88
2018-02-24T02:14:55.159Z,33.25
2018-02-24T02:16:57.658Z,34.30
2018-02-24T02:19:00.167Z,28.17
2018-02-24T02:21:02.883Z,29.67
2018-02-24T02:23:05.395Z,30.67
2018-02-24T02:25:07.878Z,29.80
2018-02-24T02:27:10.429Z,29.37
2018-02-24T02:29:12.884Z,31.77
2018-02-24T02:31:15.391Z,30.25
2018-02-24T02:33:17.869Z,29.95
2018-02-24T02:35:20.348Z,28.90
2018-02-24T02:37:22.849Z,31.40
2018-02-24T02:39:25.346Z,26.40
2018-02-24T02:41:27.816Z,31.83
2018-02-24T02:43:30.366Z,32.28
2018-02-24T02:45:32.842Z,35.03
2018-02-24T02:47:35.361Z,31.58
2018-02-24T02:49:37.859Z,33.58
2018-02-24T02:51:40.341Z,30.20
2018-02-24T02:53:42.839Z,35.50
2018-02-24T02:55:45.409Z,30.83
2018-02-24T02:57:47.866Z,32.85
2018-02-24T02:59:50.368Z,28.65
2018-02-24T03:01:52.914Z,30.17
2018-02-24T03:03:55.411Z,29.67
2018-02-24T03:05:57.860Z,29.42
2018-02-24T03:08:00.389Z,31.08
2018-02-24T03:10:02.858Z,31.08
2018-02-24T03:12:05.375Z,27.27
2018-02-24T03:14:07.843Z,30.05
2018-02-24T03:16:10.300Z,29.60
2018-02-24T03:18:12.785Z,28.40
2018-02-24T03:20:15.347Z,31.73
2018-02-24T03:22:17.875Z,34.08
2018-02-24T03:24:20.335Z,28.70
2018-02-24T03:26:22.771Z,29.92
2018-02-24T03:28:25.205Z,30.85
2018-02-24T03:30:28.570Z,31.92
2018-02-24T03:32:31.125Z,31.15
2018-02-24T03:34:33.556Z,31.58
2018-02-24T03:36:36.081Z,29.60
2018-02-24T03:38:38.505Z,30.83
2018-02-24T03:40:40.980Z,32.85
2018-02-24T03:42:43.431Z,29.10
2018-02-24T03:44:45.989Z,30.37
2018-02-24T03:46:48.434Z,27.65
2018-02-24T03:48:50.930Z,32.42
2018-02-24T03:50:53.396Z,28.00
2018-02-24T03:52:55.963Z,26.35
2018-02-24T03:54:58.436Z,33.08
2018-02-24T03:57:00.942Z,34.63
2018-02-24T03:59:03.410Z,32.72
2018-02-24T04:01:05.869Z,26.62
2018-02-24T04:03:08.402Z,26.35
2018-02-24T04:05:10.889Z,27.15
2018-02-24T04:07:13.344Z,29.05
2018-02-24T04:09:15.825Z,28.42
2018-02-24T04:11:18.275Z,26.25
2018-02-24T04:13:20.745Z,34.42
2018-02-24T04:15:23.211Z,29.67
2018-02-24T04:17:25.686Z,30.80
2018-02-24T04:19:28.264Z,29.35
2018-02-24T04:21:30.710Z,32.10
2018-02-24T04:23:33.239Z,27.75
2018-02-24T04:25:35.715Z,27.58
2018-02-24T04:27:38.191Z,29.77
2018-02-24T04:29:40.622Z,26.83
2018-02-24T04:31:43.107Z,26.35
2018-02-24T04:33:45.541Z,31.02
2018-02-24T04:35:47.992Z,27.10
2018-02-24T04:37:50.637Z,28.50
2018-02-24T04:39:53.080Z,36.00
2018-02-24T04:41:55.567Z,31.73
2018-02-24T04:43:58.076Z,32.80
2018-02-24T04:46:00.515Z,28.65
2018-02-24T04:48:02.995Z,25.12
2018-02-24T04:50:05.451Z,30.25
2018-02-24T04:52:07.996Z,30.25
2018-02-24T04:54:10.560Z,22.05
2018-02-24T04:56:13.044Z,30.42
2018-02-24T04:58:15.628Z,28.92
2018-02-24T05:00:18.435Z,29.92
2018-02-24T05:02:20.908Z,31.50
2018-02-24T05:04:23.402Z,32.20
2018-02-24T05:06:25.897Z,34.53
2018-02-24T05:08:28.405Z,33.92
2018-02-24T05:10:30.913Z,33.65
2018-02-24T05:12:33.446Z,29.02
2018-02-24T05:14:35.911Z,34.53
2018-02-24T05:16:38.480Z,32.25
2018-02-24T05:18:40.966Z,30.62
2018-02-24T05:20:43.454Z,35.92
2018-02-24T05:22:45.927Z,29.90
2018-02-24T05:24:48.350Z,28.17
2018-02-24T05:26:50.821Z,35.17
2018-02-24T05:28:53.332Z,35.70
2018-02-24T05:30:55.860Z,37.05
2018-02-24T05:32:58.321Z,34.92
2018-02-24T05:35:00.766Z,35.90
2018-02-24T05:37:03.706Z,34.00
2018-02-24T05:39:06.237Z,36.90
2018-02-24T05:41:08.711Z,33.80
2018-02-24T05:43:11.193Z,34.33
2018-02-24T05:45:13.653Z,32.35
2018-02-24T05:47:16.097Z,35.20
2018-02-24T05:49:18.582Z,28.45
2018-02-24T05:51:21.067Z,29.37
2018-02-24T05:53:23.557Z,31.58
2018-02-24T05:55:25.993Z,38.80
2018-02-24T05:57:28.479Z,32.08
2018-02-24T05:59:31.046Z,35.80
2018-02-24T06:01:33.537Z,29.60
2018-02-24T06:03:36.072Z,36.45
2018-02-24T06:05:38.584Z,33.65
2018-02-24T06:07:41.084Z,33.80
2018-02-24T06:09:43.607Z,31.10
2018-02-24T06:11:46.197Z,31.27
2018-02-24T06:13:48.637Z,35.30
2018-02-24T06:15:51.182Z,30.88
2018-02-24T06:17:53.637Z,31.02
2018-02-24T06:19:56.141Z,33.17
2018-02-24T06:21:58.626Z,30.55
2018-02-24T06:24:01.169Z,35.20
2018-02-24T06:26:03.756Z,34.45
2018-02-24T06:28:06.252Z,33.00
2018-02-24T06:30:08.735Z,32.42
2018-02-24T06:32:11.196Z,32.47
2018-02-24T06:34:13.703Z,35.28
2018-02-24T06:36:16.135Z,35.13
2018-02-24T06:38:18.658Z,30.77
2018-02-24T06:40:21.112Z,38.17
2018-02-24T06:42:23.601Z,36.63
2018-02-24T06:44:26.094Z,36.85
2018-02-24T06:46:28.523Z,34.40
2018-02-24T06:48:30.972Z,35.53
2018-02-24T06:50:33.463Z,38.83
2018-02-24T06:52:35.943Z,32.58
2018-02-24T06:54:38.392Z,33.45
2018-02-24T06:56:40.957Z,29.45
2018-02-24T06:58:43.467Z,33.08
2018-02-24T07:00:46.154Z,35.63
2018-02-24T07:02:48.604Z,32.70
2018-02-24T07:04:51.174Z,35.53
2018-02-24T07:06:53.661Z,35.33
2018-02-24T07:08:56.157Z,26.95
2018-02-24T07:10:58.691Z,33.22
2018-02-24T07:13:01.164Z,27.95
2018-02-24T07:15:03.650Z,29.87
2018-02-24T07:17:06.264Z,29.83
2018-02-24T07:19:08.743Z,27.02
2018-02-24T07:21:11.250Z,24.58
2018-02-24T07:23:13.734Z,27.87
2018-02-24T07:25:16.284Z,28.10
2018-02-24T07:27:18.762Z,23.80
2018-02-24T07:29:21.235Z,26.02
2018-02-24T07:31:23.667Z,27.15
2018-02-24T07:33:26.157Z,22.35
2018-02-24T07:35:28.605Z,25.15
2018-02-24T07:37:31.150Z,25.45
2018-02-24T07:39:33.628Z,23.17
2018-02-24T07:41:36.138Z,23.10
2018-02-24T07:43:38.602Z,23.83
2018-02-24T07:45:41.188Z,29.37
2018-02-24T07:47:43.680Z,21.33
2018-02-24T07:49:46.160Z,26.65
2018-02-24T07:51:48.595Z,24.30
2018-02-24T07:53:51.070Z,25.65
2018-02-24T07:55:53.554Z,23.90
2018-02-24T07:57:56.045Z,26.27
2018-02-24T07:59:58.644Z,23.10
2018-02-24T08:02:01.105Z,22.10
2018-02-24T08:04:03.630Z,20.98
2018-02-24T08:06:06.102Z,19.62
2018-02-24T08:08:08.717Z,16.25
2018-02-24T08:10:11.277Z,22.40
2018-02-24T08:12:13.787Z,22.08
2018-02-24T08:14:16.229Z,20.70
2018-02-24T08:16:18.704Z,24.00
2018-02-24T08:18:21.203Z,17.20
2018-02-24T08:20:23.676Z,18.75
2018-02-24T08:22:26.142Z,18.30
2018-02-24T08:24:28.638Z,20.48
2018-02-24T08:26:31.133Z,20.02
2018-02-24T08:28:33.643Z,19.65
2018-02-24T08:30:36.110Z,18.17
2018-02-24T08:32:38.582Z,17.80
2018-02-24T08:34:41.083Z,18.92
2018-02-24T08:36:43.559Z,15.32
2018-02-24T08:38:46.208Z,17.98
2018-02-24T08:40:48.715Z,13.43
2018-02-24T08:42:51.303Z,15.60
2018-02-24T08:44:53.873Z,16.83
2018-02-24T08:46:56.290Z,16.25
2018-02-24T08:48:58.779Z,19.02
2018-02-24T08:51:01.250Z,17.85
2018-02-24T08:53:03.763Z,17.73
2018-02-24T08:55:06.326Z,17.48
2018-02-24T08:57:08.789Z,17.42
2018-02-24T08:59:11.274Z,14.40
2018-02-24T09:01:13.729Z,16.33
2018-02-24T09:03:16.235Z,19.37
2018-02-24T09:05:18.724Z,15.32
2018-02-24T09:07:21.188Z,21.15
2018-02-24T09:09:23.692Z,16.80
2018-02-24T09:11:26.173Z,16.92
2018-02-24T09:13:28.688Z,16.50
2018-02-24T09:15:31.160Z,17.33
2018-02-24T09:17:33.780Z,12.90
2018-02-24T09:19:36.283Z,16.95
2018-02-24T09:21:38.750Z,22.00
2018-02-24T09:23:41.250Z,20.65
2018-02-24T09:25:43.765Z,16.60
2018-02-24T09:27:46.219Z,19.08
2018-02-24T09:29:48.784Z,18.30
2018-02-24T09:31:51.251Z,19.12
2018-02-24T09:33:53.738Z,16.05
2018-02-24T09:35:56.324Z,19.08
2018-02-24T09:37:58.812Z,19.70
2018-02-24T09:40:01.275Z,17.45
2018-02-24T09:42:03.795Z,18.37
2018-02-24T09:44:06.394Z,19.85
2018-02-24T09:46:08.864Z,17.10
2018-02-24T09:48:11.339Z,18.17
2018-02-24T09:50:13.858Z,19.50
2018-02-24T09:52:16.335Z,20.15
2018-02-24T09:54:18.890Z,17.23
2018-02-24T09:56:21.380Z,17.80
2018-02-24T09:58:24.540Z,18.70
2018-02-24T10:00:27.018Z,18.73
2018-02-24T10:02:29.514Z,19.23
2018-02-24T10:04:31.987Z,15.73
2018-02-24T10:06:34.465Z,20.98
2018-02-24T10:08:36.997Z,17.98
2018-02-24T10:10:39.468Z,15.95
2018-02-24T10:12:41.984Z,19.25
2018-02-24T10:14:44.505Z,19.58
2018-02-24T10:16:46.970Z,16.00
2018-02-24T10:18:49.477Z,17.08
2018-02-24T10:20:52.029Z,16.87
2018-02-24T10:22:54.464Z,18.08
2018-02-24T10:24:56.974Z,15.73
2018-02-24T10:26:59.396Z,19.67
2018-02-24T10:29:01.928Z,14.52
2018-02-24T10:31:04.394Z,14.45
2018-02-24T10:33:06.869Z,18.00
2018-02-24T10:35:09.356Z,19.08
2018-02-24T10:37:11.836Z,17.83
2018-02-24T10:39:14.404Z,13.10
2018-02-24T10:41:16.929Z,13.32
2018-02-24T10:43:19.390Z,13.90
2018-02-24T10:45:21.927Z,15.15
2018-02-24T10:47:24.483Z,10.15
2018-02-24T10:49:26.981Z,10.88
2018-02-24T10:51:29.524Z,15.93
2018-02-24T10:53:31.966Z,12.70
2018-02-24T10:55:34.427Z,15.20
2018-02-24T10:57:36.912Z,16.48
2018-02-24T10:59:39.392Z,15.90
2018-02-24T11:01:41.906Z,12.05
2018-02-24T11:03:44.369Z,12.48
2018-02-24T11:05:46.843Z,15.48
2018-02-24T11:07:49.331Z,13.45
2018-02-24T11:09:51.826Z,13.85
2018-02-24T11:11:54.346Z,10.88
2018-02-24T11:13:56.861Z,12.43
2018-02-24T11:15:59.327Z,13.80
2018-02-24T11:18:01.804Z,10.45
2018-02-24T11:20:04.345Z,13.85
2018-02-24T11:22:06.845Z,12.70
2018-02-24T11:24:09.488Z,9.65
2018-02-24T11:26:12.041Z,15.73
2018-02-24T11:28:14.506Z,12.95
2018-02-24T11:30:16.986Z,10.88
2018-02-24T11:32:19.478Z,12.63
2018-02-24T11:34:21.943Z,11.63
2018-02-24T11:36:24.557Z,10.05
2018-02-24T11:38:27.047Z,8.40
2018-02-24T11:40:29.536Z,8.90
2018-02-24T11:42:31.997Z,12.90
2018-02-24T11:44:34.526Z,11.15
2018-02-24T11:46:37.044Z,10.70
2018-02-24T11:48:39.550Z,13.00
2018-02-24T11:50:42.008Z,11.35
2018-02-24T11:52:44.485Z,9.23
2018-02-24T11:54:47.082Z,10.98
2018-02-24T11:56:49.562Z,13.10
2018-02-24T11:58:52.138Z,9.77
2018-02-24T12:00:54.617Z,12.57
2018-02-24T12:02:57.131Z,10.88
2018-02-24T12:04:59.688Z,8.98
2018-02-24T12:07:02.202Z,9.77
2018-02-24T12:09:04.667Z,12.20
2018-02-24T12:11:07.131Z,9.95
2018-02-24T12:13:09.633Z,10.73
2018-02-24T12:15:12.125Z,7.10
2018-02-24T12:17:14.711Z,9.85
2018-02-24T12:19:17.268Z,10.45
2018-02-24T12:21:19.747Z,10.52
2018-02-24T12:23:22.242Z,7.93
2018-02-24T12:25:24.781Z,10.15
2018-02-24T12:27:27.278Z,8.13
2018-02-24T12:29:29.772Z,8.88
2018-02-24T12:31:32.278Z,7.60
2018-02-24T12:33:34.757Z,8.70
2018-02-24T12:35:37.216Z,7.40
2018-02-24T12:37:39.695Z,10.15
2018-02-24T12:39:42.141Z,6.80
2018-02-24T12:41:44.596Z,6.37
2018-02-24T12:43:47.108Z,7.07
2018-02-24T12:45:49.556Z,7.78
2018-02-24T12:47:52.112Z,8.30
2018-02-24T12:49:54.580Z,6.82
2018-02-24T12:51:57.088Z,5.28
2018-02-24T12:53:59.593Z,4.97
2018-02-24T12:56:02.083Z,7.00
2018-02-24T12:58:04.554Z,6.03
2018-02-24T13:00:07.151Z,4.40
2018-02-24T13:02:09.649Z,5.95
2018-02-24T13:04:12.118Z,5.60
2018-02-24T13:06:14.600Z,5.50
2018-02-24T13:08:17.160Z,7.10
2018-02-24T13:10:19.642Z,6.50
2018-02-24T13:12:22.161Z,4.07
2018-02-24T13:14:24.668Z,3.40
2018-02-24T13:16:27.143Z,4.35
2018-02-24T13:18:29.639Z,4.43
2018-02-24T13:20:32.176Z,5.45
2018-02-24T13:22:34.677Z,4.22
2018-02-24T13:24:37.134Z,5.43
2018-02-24T13:26:39.646Z,4.60
2018-02-24T13:28:42.124Z,7.15
2018-02-24T13:30:44.562Z,3.03
2018-02-24T13:32:47.171Z,2.80
2018-02-24T13:34:49.711Z,3.55
2018-02-24T13:36:52.231Z,4.53
2018-02-24T13:38:54.732Z,4.57
2018-02-24T13:40:57.269Z,6.68
2018-02-24T13:42:59.790Z,3.15
2018-02-24T13:45:02.338Z,3.60
2018-02-24T13:47:04.921Z,4.43
2018-02-24T13:49:07.520Z,3.70
2018-02-24T13:51:09.973Z,3.50
2018-02-24T13:53:12.454Z,3.00
2018-02-24T13:55:14.952Z,3.90
2018-02-24T13:57:17.490Z,4.40
2018-02-24T13:59:19.996Z,4.72
2018-02-24T14:01:22.498Z,3.58
2018-02-24T14:03:24.989Z,3.42
2018-02-24T14:05:27.459Z,4.45
2018-02-24T14:07:30.044Z,6.28
2018-02-24T14:09:32.535Z,3.53
2018-02-24T14:11:35.004Z,3.20
2018-02-24T14:15:46.159Z,6.10
2018-02-24T14:17:48.664Z,4.25
2018-02-24T14:19:51.258Z,4.50
2018-02-24T14:21:53.761Z,3.40
2018-02-24T14:23:56.221Z,3.22
2018-02-24T14:25:58.669Z,3.87
2018-02-24T14:28:01.184Z,4.50
2018-02-24T14:30:03.738Z,5.55
2018-02-24T14:32:06.262Z,2.85
2018-02-24T14:34:08.729Z,3.15
2018-02-24T14:36:11.180Z,4.05
2018-02-24T14:38:13.669Z,4.18
2018-02-24T14:40:16.158Z,3.60
2018-02-24T14:42:18.660Z,6.25
2018-02-24T14:44:21.195Z,3.55
2018-02-24T14:46:23.783Z,3.75
2018-02-24T14:48:26.271Z,2.58
2018-02-24T14:50:28.796Z,3.70
2018-02-24T14:52:31.325Z,3.12
2018-02-24T14:54:33.848Z,3.10
2018-02-24T14:56:36.370Z,4.28
2018-02-24T14:58:38.879Z,7.15
2018-02-24T15:00:41.429Z,3.50
2018-02-24T15:02:43.915Z,6.53
2018-02-24T15:04:46.519Z,3.25
2018-02-24T15:06:49.034Z,3.42
2018-02-24T15:08:51.479Z,3.55
2018-02-24T15:10:53.929Z,3.85
2018-02-24T15:12:56.459Z,3.22
2018-02-24T15:14:58.898Z,5.85
2018-02-24T15:17:01.449Z,3.33
2018-02-24T15:19:04.003Z,4.00
2018-02-24T15:21:06.493Z,10.73
2018-02-24T15:23:08.983Z,10.13
2018-02-24T15:25:11.536Z,5.62
2018-02-24T15:27:14.064Z,4.43
2018-02-24T15:29:16.588Z,8.50
2018-02-24T15:31:19.078Z,3.00
2018-02-24T15:33:22.526Z,2.53
2018-02-24T15:35:25.134Z,2.95
2018-02-24T15:37:27.635Z,3.25
2018-02-24T15:39:30.163Z,3.75
2018-02-24T15:41:32.698Z,2.87
2018-02-24T15:43:35.211Z,2.70
2018-02-24T15:45:37.730Z,3.42
2018-02-24T15:47:40.326Z,3.60
2018-02-24T15:49:42.814Z,3.03
2018-02-24T15:51:45.330Z,2.80
2018-02-24T15:53:47.854Z,5.25
2018-02-24T15:55:50.317Z,2.62
2018-02-24T15:57:52.841Z,2.40
2018-02-24T15:59:55.321Z,4.20
2018-02-24T16:01:57.854Z,2.83
2018-02-24T16:04:00.355Z,4.57
2018-02-24T16:06:02.976Z,6.93
2018-02-24T16:08:05.482Z,7.28
2018-02-24T16:10:07.994Z,3.00
2018-02-24T16:12:10.491Z,4.80
2018-02-24T16:14:13.153Z,4.30
2018-02-24T16:16:15.615Z,6.87
2018-02-24T16:18:18.212Z,2.87
2018-02-24T16:20:20.686Z,3.30
2018-02-24T16:22:23.182Z,3.33
2018-02-24T16:24:25.710Z,3.15
2018-02-24T16:26:28.239Z,3.20
2018-02-24T16:28:30.781Z,3.28
2018-02-24T16:30:33.355Z,3.30
2018-02-24T16:32:35.867Z,5.53
2018-02-24T16:34:38.393Z,3.20
2018-02-24T16:36:40.907Z,2.87
2018-02-24T16:38:43.449Z,3.35
2018-02-24T16:40:45.914Z,3.50
2018-02-24T16:42:48.362Z,3.72
2018-02-24T16:44:50.852Z,3.47
2018-02-24T16:46:53.309Z,2.90
2018-02-24T16:48:55.816Z,5.65
2018-02-24T16:50:58.410Z,3.92
2018-02-24T16:53:00.972Z,6.90
2018-02-24T16:55:03.446Z,4.32
2018-02-24T16:57:05.997Z,4.28
2018-02-24T16:59:08.473Z,4.12
2018-02-24T17:01:10.983Z,3.08
2018-02-24T17:03:13.570Z,3.53
2018-02-24T17:05:16.122Z,5.15
2018-02-24T17:07:18.632Z,3.33
2018-02-24T17:09:21.259Z,3.28
2018-02-24T17:11:23.790Z,4.20
2018-02-24T17:13:26.316Z,3.17
2018-02-24T17:15:28.762Z,3.85
2018-02-24T17:17:31.295Z,3.28
2018-02-24T17:19:33.821Z,8.48
2018-02-24T17:21:36.423Z,6.45
2018-02-24T17:23:38.924Z,3.30
2018-02-24T17:25:41.369Z,4.50
2018-02-24T17:27:43.846Z,4.10
2018-02-24T17:29:46.401Z,4.75
2018-02-24T17:31:48.867Z,4.72
2018-02-24T17:33:51.401Z,2.97
2018-02-24T17:35:53.923Z,3.15
2018-02-24T17:37:56.427Z,4.20
2018-02-24T17:39:59.022Z,4.62
2018-02-24T17:42:01.516Z,8.82
2018-02-24T17:44:04.003Z,8.25
2018-02-24T17:46:06.531Z,4.70
2018-02-24T17:48:09.133Z,2.80
2018-02-24T17:50:11.620Z,3.67
2018-02-24T17:52:14.078Z,3.00
2018-02-24T17:54:16.592Z,4.20
2018-02-24T17:56:19.109Z,4.93
2018-02-24T17:58:21.578Z,3.85
2018-02-24T18:00:24.065Z,3.10
2018-02-24T18:02:26.573Z,5.35
2018-02-24T18:04:29.042Z,5.32
2018-02-24T18:06:31.526Z,3.42
2018-02-24T18:08:34.022Z,4.53
2018-02-24T18:10:36.568Z,4.95
2018-02-24T18:12:39.051Z,3.20
2018-02-24T18:14:41.547Z,6.47
2018-02-24T18:16:44.048Z,4.93
2018-02-24T18:18:46.516Z,3.67
2018-02-24T18:20:49.035Z,4.55
2018-02-24T18:22:51.500Z,2.90
2018-02-24T18:24:53.965Z,4.75
2018-02-24T18:26:56.455Z,3.12
2018-02-24T18:28:58.986Z,3.53
2018-02-24T18:31:01.507Z,5.12
2018-02-24T18:33:04.033Z,5.78
2018-02-24T18:35:06.576Z,3.85
2018-02-24T18:37:09.143Z,4.37
2018-02-24T18:39:11.591Z,3.85
2018-02-24T18:41:14.037Z,4.28
2018-02-24T18:43:16.549Z,3.53
2018-02-24T18:45:19.071Z,3.55
2018-02-24T18:47:21.558Z,7.75
2018-02-24T18:49:24.027Z,4.05
2018-02-24T18:51:26.562Z,3.25
2018-02-24T18:53:29.071Z,2.90
2018-02-24T18:55:31.560Z,4.03
2018-02-24T18:57:34.088Z,4.75
2018-02-24T18:59:36.598Z,4.00
2018-02-24T19:01:39.076Z,5.18
2018-02-24T19:03:41.568Z,9.15
2018-02-24T19:05:44.179Z,4.43
2018-02-24T19:07:46.692Z,3.28
2018-02-24T19:09:49.267Z,3.30
2018-02-24T19:11:51.890Z,3.12
2018-02-24T19:13:54.486Z,3.28
2018-02-24T19:15:57.044Z,3.50
2018-02-24T19:17:59.649Z,3.85
2018-02-24T19:20:02.193Z,2.85
2018-02-24T19:22:04.697Z,3.65
2018-02-24T19:24:07.199Z,3.30
2018-02-24T19:26:09.736Z,5.80
2018-02-24T19:28:12.213Z,3.30
2018-02-24T19:30:14.711Z,3.25
2018-02-24T19:32:17.283Z,3.78
2018-02-24T19:34:19.792Z,4.12
2018-02-24T19:36:22.397Z,3.50
2018-02-24T19:38:24.901Z,3.87
2018-02-24T19:40:27.364Z,4.00
2018-02-24T19:42:30.087Z,3.30
2018-02-24T19:44:32.632Z,4.25
2018-02-24T19:46:35.147Z,3.10
2018-02-24T19:48:37.688Z,3.40
2018-02-24T19:50:40.160Z,6.93
2018-02-24T19:52:42.720Z,4.55
2018-02-24T19:54:45.329Z,4.22
2018-02-24T19:56:47.834Z,3.50
2018-02-24T19:58:50.370Z,3.17
2018-02-24T20:00:52.852Z,3.72
2018-02-24T20:02:55.337Z,4.07
2018-02-24T20:04:57.846Z,4.35
2018-02-24T20:07:00.359Z,3.90
2018-02-24T20:09:02.865Z,3.87
2018-02-24T20:11:05.367Z,3.50
2018-02-24T20:13:07.869Z,4.87
2018-02-24T20:15:10.467Z,4.05
2018-02-24T20:17:12.983Z,6.57
2018-02-24T20:19:15.652Z,3.35
2018-02-24T20:21:18.123Z,5.15
2018-02-24T20:23:20.662Z,5.72
2018-02-24T20:25:23.253Z,4.97
2018-02-24T20:27:25.707Z,3.50
2018-02-24T20:29:28.196Z,6.28
2018-02-24T20:31:30.743Z,6.35
2018-02-24T20:33:33.204Z,5.97
2018-02-24T20:35:35.675Z,4.03
2018-02-24T20:37:38.163Z,3.87
2018-02-24T20:39:40.664Z,5.03
2018-02-24T20:41:43.153Z,5.45
2018-02-24T20:43:45.671Z,5.60
2018-02-24T20:45:48.201Z,5.07
2018-02-24T20:47:50.679Z,3.50
2018-02-24T20:49:53.180Z,5.85
2018-02-24T20:51:55.668Z,5.70
2018-02-24T20:53:58.255Z,5.70
2018-02-24T20:56:00.718Z,3.92
2018-02-24T20:58:03.330Z,5.35
2018-02-24T21:00:05.849Z,5.70
2018-02-24T21:02:08.331Z,5.97
2018-02-24T21:04:11.139Z,4.10
2018-02-24T21:06:13.659Z,6.50
2018-02-24T21:08:16.223Z,3.97
2018-02-24T21:10:18.702Z,7.22
2018-02-24T21:12:21.211Z,4.95
2018-02-24T21:14:23.908Z,5.20
2018-02-24T21:16:26.398Z,4.85
2018-02-24T21:18:29.013Z,4.80
2018-02-24T21:20:31.519Z,4.62
2018-02-24T21:22:34.041Z,4.40
2018-02-24T21:24:36.560Z,5.28
2018-02-24T21:26:39.095Z,5.68
2018-02-24T21:28:41.647Z,4.85
2018-02-24T21:30:44.110Z,4.53
2018-02-24T21:32:46.640Z,4.65
2018-02-24T21:34:49.115Z,4.53
2018-02-24T21:36:51.620Z,4.87
2018-02-24T21:38:54.174Z,4.93
2018-02-24T21:40:56.641Z,4.12
2018-02-24T21:42:59.214Z,4.87
2018-02-24T21:45:01.744Z,7.20
2018-02-24T21:47:04.199Z,6.10
2018-02-24T21:49:06.736Z,4.80
2018-02-24T21:51:09.202Z,3.50
2018-02-24T21:53:11.785Z,4.07
2018-02-24T21:55:14.280Z,8.10
2018-02-24T21:57:16.769Z,4.75
2018-02-24T21:59:19.260Z,5.15
2018-02-24T22:01:21.743Z,4.60
2018-02-24T22:03:24.233Z,4.22
2018-02-24T22:05:26.842Z,5.25
2018-02-24T22:07:29.335Z,5.25
2018-02-24T22:09:31.838Z,5.43
2018-02-24T22:11:34.325Z,8.15
2018-02-24T22:13:36.784Z,4.82
2018-02-24T22:15:39.280Z,8.13
2018-02-24T22:17:41.710Z,4.90
2018-02-24T22:19:44.297Z,7.28
2018-02-24T22:21:46.841Z,4.30
2018-02-24T22:23:49.352Z,5.15
2018-02-24T22:25:51.810Z,3.72
2018-02-24T22:27:54.364Z,3.92
2018-02-24T22:29:56.845Z,5.60
2018-02-24T22:31:59.334Z,5.18
2018-02-24T22:34:01.822Z,5.57
2018-02-24T22:36:04.327Z,4.05
2018-02-24T22:38:06.832Z,6.57
2018-02-24T22:40:09.440Z,6.25
2018-02-24T22:42:11.944Z,6.70
2018-02-24T22:44:14.476Z,6.82
2018-02-24T22:46:17.020Z,5.12
2018-02-24T22:50:57.021Z,8.00
2018-02-24T22:52:59.576Z,5.82
2018-02-24T22:55:02.060Z,6.65
2018-02-24T22:57:04.637Z,5.18
2018-02-24T22:59:07.169Z,7.45
2018-02-24T23:01:09.631Z,9.05
2018-02-24T23:03:12.134Z,5.90
2018-02-24T23:05:14.660Z,4.95
2018-02-24T23:07:17.199Z,4.10
2018-02-24T23:09:19.717Z,6.50
2018-02-24T23:11:22.181Z,4.28
2018-02-24T23:13:24.727Z,3.65
2018-02-24T23:15:27.184Z,5.85
2018-02-24T23:17:29.669Z,5.65
2018-02-24T23:19:32.157Z,5.53
2018-02-24T23:21:34.623Z,7.53
2018-02-24T23:23:37.076Z,4.10
2018-02-24T23:25:39.772Z,12.63
2018-02-24T23:27:42.211Z,9.98
2018-02-24T23:29:44.676Z,3.35
2018-02-24T23:31:47.162Z,5.53
2018-02-24T23:33:49.683Z,4.90
2018-02-24T23:35:52.114Z,7.85
2018-02-24T23:37:54.645Z,3.97
2018-02-24T23:39:57.110Z,4.25
2018-02-24T23:41:59.629Z,6.57
2018-02-24T23:44:02.124Z,5.87
2018-02-24T23:46:04.583Z,6.53
2018-02-24T23:48:07.106Z,6.22
2018-02-24T23:50:09.609Z,7.25
2018-02-24T23:52:12.081Z,6.65
2018-02-24T23:54:14.527Z,7.55
2018-02-24T23:56:17.000Z,5.70
2018-02-24T23:58:19.506Z,8.18
